createdAt,value
2018-06-01T00:00:39.785Z,4.00
2018-06-01T00:01:39.750Z,4.00
2018-06-01T00:02:39.745Z,4.00
2018-06-01T00:03:39.732Z,4.00
2018-06-01T00:04:39.725Z,4.00
2018-06-01T00:05:39.714Z,4.00
2018-06-01T00:06:39.705Z,4.00
2018-06-01T00:07:39.898Z,4.00
2018-06-01T00:08:39.688Z,4.00
2018-06-01T00:09:39.679Z,4.00
2018-06-01T00:10:39.669Z,4.00
2018-06-01T00:11:39.662Z,4.00
2018-06-01T00:12:39.653Z,4.00
2018-06-01T00:13:39.642Z,4.00
2018-06-01T00:14:39.634Z,4.00
2018-06-01T00:15:39.627Z,4.00
2018-06-01T00:16:39.616Z,4.00
2018-06-01T11:42:30.552Z,2000.00
2018-06-01T11:43:30.475Z,2036.00
2018-06-01T11:44:30.470Z,2056.00
2018-06-01T11:45:30.446Z,2072.00
2018-06-01T11:46:30.437Z,2100.00
2018-06-01T11:47:30.429Z,2108.00
2018-06-01T11:48:30.409Z,2128.00
2018-06-01T11:49:30.400Z,2136.00
2018-06-01T11:50:30.390Z,2128.00
2018-06-01T11:51:30.390Z,2096.00
2018-06-01T11:52:30.375Z,2152.00
2018-06-01T11:53:30.357Z,2176.00
2018-06-01T11:54:30.347Z,2188.00
2018-06-01T11:55:30.339Z,2144.00
2018-06-01T11:56:30.338Z,2168.00
2018-06-01T11:57:30.322Z,2192.00
2018-06-01T11:58:30.312Z,2184.00
2018-06-01T11:59:30.303Z,2224.00
2018-06-01T12:00:30.297Z,2264.00
2018-06-01T12:01:30.291Z,2264.00
2018-06-01T12:02:30.283Z,2272.00
2018-06-01T12:03:30.273Z,2288.00
2018-06-01T12:04:30.264Z,2248.00
2018-06-01T12:05:30.257Z,2316.00
2018-06-01T12:06:30.250Z,2292.00
2018-06-01T12:07:30.245Z,2356.00
2018-06-01T12:08:30.238Z,2324.00
2018-06-01T12:09:30.227Z,2340.00
2018-06-01T12:10:30.220Z,2360.00
2018-06-01T12:11:30.214Z,2328.00
2018-06-01T12:12:30.463Z,2344.00
2018-06-01T12:13:30.200Z,2328.00
2018-06-01T12:14:30.199Z,2340.00
2018-06-01T12:15:30.187Z,2316.00
2018-06-01T12:16:30.181Z,2312.00
2018-06-01T12:17:30.236Z,2308.00
2018-06-01T12:18:30.167Z,2308.00
2018-06-01T12:19:30.161Z,2312.00
2018-06-01T12:20:30.155Z,2308.00
2018-06-01T12:21:30.148Z,2292.00
2018-06-01T12:22:30.141Z,2320.00
2018-06-01T12:23:30.136Z,2300.00
2018-06-01T12:24:30.128Z,2320.00
2018-06-01T12:25:30.122Z,2308.00
2018-06-01T12:26:30.116Z,2300.00
2018-06-01T12:27:30.111Z,2316.00
2018-06-01T12:28:30.104Z,2308.00
2018-06-01T12:29:30.098Z,2312.00
2018-06-01T12:30:30.093Z,2300.00
2018-06-01T12:31:30.086Z,2292.00
2018-06-01T12:32:30.080Z,2276.00
2018-06-01T12:33:30.081Z,2276.00
2018-06-01T12:34:30.071Z,2260.00
2018-06-01T12:35:30.064Z,2240.00
2018-06-01T12:36:30.259Z,2228.00
2018-06-01T12:37:30.056Z,2184.00
2018-06-01T12:38:30.045Z,2128.00
2018-06-01T12:39:30.041Z,2096.00
2018-06-01T12:40:30.038Z,2028.00
2018-06-01T12:41:30.031Z,1968.00
2018-06-01T12:42:30.025Z,1912.00
2018-06-01T12:43:30.019Z,1888.00
2018-06-01T12:44:30.015Z,1856.00
2018-06-01T12:45:30.008Z,1836.00
2018-06-01T12:46:30.002Z,1820.00
2018-06-01T12:47:29.996Z,1804.00
2018-06-01T12:48:29.993Z,1792.00
2018-06-01T12:49:29.987Z,1784.00
2018-06-01T12:50:29.980Z,1772.00
2018-06-01T12:51:29.977Z,1756.00
2018-06-01T12:52:29.971Z,1720.00
2018-06-01T12:53:29.965Z,1720.00
2018-06-01T12:54:29.958Z,1720.00
2018-06-01T12:55:29.956Z,1696.00
2018-06-01T12:56:29.950Z,1688.00
2018-06-01T12:57:29.945Z,1676.00
2018-06-01T12:58:29.938Z,1652.00
2018-06-01T12:59:29.932Z,1632.00
2018-06-01T13:00:29.927Z,1592.00
2018-06-01T13:01:29.925Z,1564.00
2018-06-01T13:02:29.918Z,1520.00
2018-06-01T13:03:29.940Z,1480.00
2018-06-01T13:04:29.907Z,1432.00
2018-06-01T13:05:29.902Z,1384.00
2018-06-01T13:06:30.096Z,1348.00
2018-06-01T13:07:29.891Z,1304.00
2018-06-01T13:08:29.885Z,1268.00
2018-06-01T13:09:29.884Z,1244.00
2018-06-01T13:10:29.878Z,1204.00
2018-06-01T13:11:29.871Z,1164.00
2018-06-01T13:12:29.865Z,1140.00
2018-06-01T13:13:29.861Z,1124.00
2018-06-01T13:14:29.852Z,1092.00
2018-06-01T13:15:29.848Z,1072.00
2018-06-01T13:16:29.844Z,1052.00
2018-06-01T13:17:29.837Z,1028.00
2018-06-01T13:18:29.832Z,1016.00
2018-06-01T13:19:29.826Z,1000.00
2018-06-01T13:20:29.851Z,996.00
2018-06-01T13:21:29.816Z,992.00
2018-06-01T13:22:29.809Z,1004.00
2018-06-01T13:23:29.804Z,1000.00
2018-06-01T13:24:29.799Z,992.00
2018-06-01T13:25:29.793Z,1008.00
2018-06-01T13:26:29.788Z,1000.00
2018-06-01T13:27:29.781Z,1004.00
2018-06-01T13:28:29.777Z,992.00
2018-06-01T13:29:29.770Z,988.00
2018-06-01T13:30:29.764Z,976.00
2018-06-01T13:31:29.760Z,968.00
2018-06-01T13:32:29.753Z,964.00
2018-06-01T13:33:29.748Z,964.00
2018-06-01T13:34:29.746Z,948.00
2018-06-01T13:35:29.736Z,952.00
2018-06-01T13:36:29.931Z,952.00
2018-06-01T13:37:29.726Z,936.00
2018-06-01T13:38:29.719Z,940.00
2018-06-01T13:39:29.718Z,932.00
2018-06-01T13:40:29.709Z,924.00
2018-06-01T13:41:29.706Z,928.00
2018-06-01T13:42:29.697Z,928.00
2018-06-01T13:43:29.691Z,932.00
2018-06-01T13:44:29.689Z,932.00
2018-06-01T13:45:29.679Z,940.00
2018-06-01T13:46:29.673Z,944.00
2018-06-01T13:47:29.668Z,944.00
2018-06-01T13:48:29.663Z,952.00
2018-06-01T13:49:29.656Z,952.00
2018-06-01T13:50:29.650Z,940.00
2018-06-01T13:51:29.644Z,960.00
2018-06-01T13:52:29.640Z,968.00
2018-06-01T13:53:29.635Z,964.00
2018-06-01T13:54:29.628Z,972.00
2018-06-01T13:55:29.622Z,988.00
2018-06-01T13:56:29.619Z,996.00
2018-06-01T13:57:29.611Z,1000.00
2018-06-01T13:58:29.606Z,1004.00
2018-06-01T13:59:29.600Z,1008.00
2018-06-01T14:00:29.605Z,1024.00
2018-06-01T14:01:29.590Z,1020.00
2018-06-01T14:02:29.586Z,1020.00
2018-06-01T14:03:29.578Z,1028.00
2018-06-01T14:04:29.574Z,1032.00
2018-06-01T14:05:29.569Z,1032.00
2018-06-01T14:06:29.561Z,1040.00
2018-06-01T14:07:29.557Z,1028.00
2018-06-01T14:08:29.556Z,1036.00
2018-06-01T14:09:29.546Z,1052.00
2018-06-01T14:10:29.540Z,1036.00
2018-06-01T14:11:29.537Z,1044.00
2018-06-01T14:12:29.530Z,1048.00
2018-06-01T14:13:29.532Z,1048.00
2018-06-01T14:14:29.519Z,1068.00
2018-06-01T14:15:29.516Z,1056.00
2018-06-01T14:16:29.509Z,1060.00
2018-06-01T14:17:29.506Z,1076.00
2018-06-01T14:18:29.499Z,1072.00
2018-06-01T14:19:29.493Z,1068.00
2018-06-01T14:20:29.489Z,1080.00
2018-06-01T14:21:29.484Z,1088.00
2018-06-01T14:22:29.480Z,1092.00
2018-06-01T14:23:29.474Z,1084.00
2018-06-01T14:24:29.469Z,1112.00
2018-06-01T14:25:29.465Z,1100.00
2018-06-01T14:26:29.463Z,1092.00
2018-06-01T14:27:29.455Z,1108.00
2018-06-01T14:28:29.451Z,1108.00
2018-06-01T14:29:29.447Z,1128.00
2018-06-01T14:30:29.441Z,1112.00
2018-06-01T14:31:29.435Z,1116.00
2018-06-01T14:32:29.432Z,1108.00
2018-06-01T14:33:29.426Z,1120.00
2018-06-01T14:34:29.422Z,1116.00
2018-06-01T14:35:29.417Z,1132.00
2018-06-01T14:36:29.412Z,1128.00
2018-06-01T14:37:29.409Z,1132.00
2018-06-01T14:38:29.404Z,1136.00
2018-06-01T14:39:29.397Z,1124.00
2018-06-01T14:40:29.419Z,1120.00
2018-06-01T14:41:29.389Z,1116.00
2018-06-01T14:42:29.384Z,1120.00
2018-06-01T14:43:29.379Z,1128.00
2018-06-01T14:44:29.374Z,1112.00
2018-06-01T14:45:29.371Z,1116.00
2018-06-01T14:46:29.364Z,1124.00
2018-06-01T14:47:29.360Z,1124.00
2018-06-01T14:48:29.355Z,1104.00
2018-06-01T14:49:29.352Z,1080.00
2018-06-01T14:50:29.347Z,1056.00
2018-06-01T14:51:29.341Z,1048.00
2018-06-01T14:52:29.338Z,1016.00
2018-06-01T14:53:29.336Z,1000.00
2018-06-01T14:54:29.327Z,980.00
2018-06-01T14:55:29.318Z,980.00
2018-06-01T14:56:29.314Z,960.00
2018-06-01T14:57:29.310Z,944.00
2018-06-01T14:58:29.303Z,940.00
2018-06-01T14:59:29.299Z,932.00
2018-06-01T15:00:29.293Z,924.00
2018-06-01T15:01:29.288Z,912.00
2018-06-01T15:02:29.283Z,896.00
2018-06-01T15:03:29.278Z,880.00
2018-06-01T15:04:29.273Z,884.00
2018-06-01T15:05:29.267Z,868.00
2018-06-01T15:06:29.261Z,860.00
2018-06-01T15:07:29.255Z,868.00
2018-06-01T15:08:29.293Z,872.00
2018-06-01T15:09:29.251Z,856.00
2018-06-01T15:10:29.240Z,860.00
2018-06-01T15:11:29.235Z,852.00
2018-06-01T15:12:29.228Z,848.00
2018-06-01T15:13:29.225Z,836.00
2018-06-01T15:14:29.218Z,840.00
2018-06-01T15:15:29.213Z,832.00
2018-06-01T15:16:29.206Z,844.00
2018-06-01T15:17:29.202Z,824.00
2018-06-01T15:18:29.198Z,820.00
2018-06-01T15:19:29.197Z,808.00
2018-06-01T15:20:29.187Z,804.00
2018-06-01T15:21:29.187Z,808.00
2018-06-01T15:22:29.174Z,796.00
2018-06-01T15:23:29.169Z,788.00
2018-06-01T15:24:29.166Z,780.00
2018-06-01T15:25:29.160Z,756.00
2018-06-01T15:26:29.157Z,756.00
2018-06-01T15:27:29.149Z,728.00
2018-06-01T15:28:29.144Z,728.00
2018-06-01T15:29:29.139Z,716.00
2018-06-01T15:30:29.132Z,712.00
2018-06-01T15:31:29.128Z,708.00
2018-06-01T15:32:29.121Z,696.00
2018-06-01T15:33:29.118Z,676.00
2018-06-01T15:34:29.111Z,652.00
2018-06-01T15:35:29.107Z,644.00
2018-06-01T15:36:29.303Z,612.00
2018-06-01T15:37:29.097Z,608.00
2018-06-01T15:38:29.090Z,608.00
2018-06-01T15:39:29.086Z,596.00
2018-06-01T15:40:29.081Z,576.00
2018-06-01T15:41:29.075Z,572.00
2018-06-01T15:42:29.067Z,556.00
2018-06-01T15:43:29.064Z,540.00
2018-06-01T15:44:29.059Z,516.00
2018-06-01T15:45:29.053Z,524.00
2018-06-01T15:46:29.047Z,536.00
2018-06-01T15:47:29.190Z,520.00
2018-06-01T15:48:29.037Z,504.00
2018-06-01T15:49:29.034Z,504.00
2018-06-01T15:50:29.024Z,504.00
2018-06-01T15:51:29.020Z,504.00
2018-06-01T15:52:29.015Z,512.00
2018-06-01T15:53:29.009Z,516.00
2018-06-01T15:54:29.004Z,508.00
2018-06-01T15:55:28.997Z,500.00
2018-06-01T15:56:28.994Z,496.00
2018-06-01T15:57:28.988Z,488.00
2018-06-01T15:58:28.980Z,480.00
2018-06-01T15:59:28.977Z,480.00
2018-06-01T16:00:28.971Z,476.00
2018-06-01T16:01:28.966Z,476.00
2018-06-01T16:02:28.958Z,484.00
2018-06-01T16:03:28.961Z,476.00
2018-06-01T16:04:28.949Z,460.00
2018-06-01T16:05:28.944Z,452.00
2018-06-01T16:06:28.939Z,456.00
2018-06-01T16:07:28.932Z,452.00
2018-06-01T16:08:28.928Z,464.00
2018-06-01T16:09:28.923Z,476.00
2018-06-01T16:10:28.916Z,472.00
2018-06-01T16:11:28.912Z,476.00
2018-06-01T16:12:28.912Z,480.00
2018-06-01T16:13:28.901Z,484.00
2018-06-01T16:14:28.895Z,480.00
2018-06-01T16:15:28.888Z,480.00
2018-06-01T16:16:28.884Z,484.00
2018-06-01T16:17:28.878Z,484.00
2018-06-01T16:18:28.872Z,492.00
2018-06-01T16:19:28.867Z,508.00
2018-06-01T16:20:28.862Z,512.00
2018-06-01T16:21:28.860Z,504.00
2018-06-01T16:22:28.850Z,488.00
2018-06-01T16:23:28.845Z,480.00
2018-06-01T16:24:28.840Z,488.00
2018-06-01T16:25:28.837Z,476.00
2018-06-01T16:26:28.830Z,496.00
2018-06-01T16:27:28.824Z,504.00
2018-06-01T16:28:28.819Z,508.00
2018-06-01T16:29:28.814Z,508.00
2018-06-01T16:30:28.809Z,492.00
2018-06-01T16:31:28.823Z,484.00
2018-06-01T16:32:28.802Z,496.00
2018-06-01T16:33:28.792Z,500.00
2018-06-01T16:34:28.788Z,516.00
2018-06-01T16:35:28.782Z,516.00
2018-06-01T16:36:28.776Z,516.00
2018-06-01T16:37:28.771Z,496.00
2018-06-01T16:38:28.764Z,472.00
2018-06-01T16:39:28.761Z,480.00
2018-06-01T16:40:28.754Z,480.00
2018-06-01T16:41:28.752Z,508.00
2018-06-01T16:42:28.746Z,544.00
2018-06-01T16:43:28.737Z,564.00
2018-06-01T16:44:28.732Z,568.00
2018-06-01T16:45:28.727Z,576.00
2018-06-01T16:46:28.723Z,576.00
2018-06-01T16:47:28.715Z,560.00
2018-06-01T16:48:28.712Z,556.00
2018-06-01T16:49:28.704Z,560.00
2018-06-01T16:50:28.708Z,572.00
2018-06-01T16:51:28.695Z,588.00
2018-06-01T16:52:28.688Z,596.00
2018-06-01T16:53:28.685Z,576.00
2018-06-01T16:54:28.680Z,516.00
2018-06-01T16:55:28.673Z,460.00
2018-06-01T16:56:28.668Z,428.00
2018-06-01T16:57:28.661Z,408.00
2018-06-01T16:58:28.659Z,392.00
2018-06-01T16:59:28.652Z,392.00
2018-06-01T17:00:28.647Z,392.00
2018-06-01T17:01:28.642Z,412.00
2018-06-01T17:02:28.636Z,432.00
2018-06-01T17:03:28.629Z,448.00
2018-06-01T17:10:28.594Z,432.00
2018-06-01T17:11:28.595Z,408.00
2018-06-01T17:12:28.588Z,384.00
2018-06-01T17:13:28.579Z,356.00
2018-06-01T17:14:28.575Z,344.00
2018-06-01T17:15:28.609Z,332.00
2018-06-01T17:16:28.563Z,324.00
2018-06-01T17:17:28.558Z,316.00
2018-06-01T17:18:28.552Z,308.00
2018-06-01T17:19:28.547Z,304.00
2018-06-01T17:20:28.543Z,300.00
2018-06-01T17:21:28.537Z,304.00
2018-06-01T17:22:28.530Z,300.00
2018-06-01T17:23:28.530Z,300.00
2018-06-01T17:24:28.521Z,296.00
2018-06-01T17:25:28.519Z,296.00
2018-06-01T17:26:28.508Z,292.00
2018-06-01T17:27:28.503Z,292.00
2018-06-01T17:28:28.499Z,288.00
2018-06-01T17:29:28.494Z,288.00
2018-06-01T17:30:28.488Z,288.00
2018-06-01T17:31:28.485Z,284.00
2018-06-01T17:32:28.479Z,280.00
2018-06-01T17:33:28.473Z,276.00
2018-06-01T17:34:28.467Z,272.00
2018-06-01T17:35:28.463Z,272.00
2018-06-01T17:36:28.458Z,264.00
2018-06-01T17:37:28.452Z,260.00
2018-06-01T17:38:28.446Z,256.00
2018-06-01T17:39:28.442Z,256.00
2018-06-01T17:40:28.436Z,260.00
2018-06-01T17:41:28.432Z,260.00
2018-06-01T17:42:28.425Z,256.00
2018-06-01T17:43:28.421Z,256.00
2018-06-01T17:44:28.416Z,260.00
2018-06-01T17:45:28.411Z,256.00
2018-06-01T17:46:28.405Z,252.00
2018-06-01T17:47:28.399Z,248.00
2018-06-01T17:48:28.395Z,252.00
2018-06-01T17:49:28.390Z,244.00
2018-06-01T17:50:28.388Z,244.00
2018-06-01T17:51:28.378Z,244.00
2018-06-01T17:52:28.377Z,236.00
2018-06-01T17:53:28.369Z,232.00
2018-06-01T17:54:28.363Z,232.00
2018-06-01T17:55:28.359Z,224.00
2018-06-01T17:56:28.354Z,224.00
2018-06-01T17:57:28.355Z,220.00
2018-06-01T17:58:28.343Z,220.00
2018-06-01T17:59:28.338Z,220.00
2018-06-01T18:00:28.334Z,216.00
2018-06-01T18:01:28.328Z,216.00
2018-06-01T18:02:28.322Z,216.00
2018-06-01T18:03:28.317Z,208.00
2018-06-01T18:04:28.312Z,212.00
2018-06-01T18:05:28.307Z,208.00
2018-06-01T18:06:28.300Z,208.00
2018-06-01T18:07:28.296Z,208.00
2018-06-01T18:08:28.290Z,208.00
2018-06-01T18:09:28.287Z,208.00
2018-06-01T18:10:28.280Z,208.00
2018-06-01T18:11:28.275Z,208.00
2018-06-01T18:12:28.270Z,204.00
2018-06-01T18:13:28.267Z,208.00
2018-06-01T18:14:28.259Z,204.00
2018-06-01T18:15:28.254Z,200.00
2018-06-01T18:16:28.249Z,200.00
2018-06-01T18:17:28.245Z,200.00
2018-06-01T18:18:28.237Z,200.00
2018-06-01T18:19:28.233Z,196.00
2018-06-01T18:20:28.230Z,200.00
2018-06-01T18:21:28.227Z,196.00
2018-06-01T18:22:28.286Z,196.00
2018-06-01T18:23:28.213Z,192.00
2018-06-01T18:24:28.251Z,192.00
2018-06-01T18:25:28.203Z,192.00
2018-06-01T18:26:28.198Z,192.00
2018-06-01T18:27:28.198Z,188.00
2018-06-01T18:28:28.189Z,192.00
2018-06-01T18:29:28.181Z,188.00
2018-06-01T18:30:28.176Z,188.00
2018-06-01T18:31:28.172Z,188.00
2018-06-01T18:32:28.165Z,184.00
2018-06-01T18:33:28.161Z,188.00
2018-06-01T18:34:28.155Z,180.00
2018-06-01T18:35:28.149Z,184.00
2018-06-01T18:36:28.145Z,184.00
2018-06-01T18:37:28.140Z,184.00
2018-06-01T18:38:28.134Z,184.00
2018-06-01T18:39:28.127Z,184.00
2018-06-01T18:40:28.123Z,184.00
2018-06-01T18:41:28.118Z,184.00
2018-06-01T18:42:28.112Z,180.00
2018-06-01T18:43:28.107Z,180.00
2018-06-01T18:44:28.104Z,180.00
2018-06-01T18:45:28.097Z,176.00
2018-06-01T18:46:28.291Z,176.00
2018-06-01T18:47:28.086Z,176.00
2018-06-01T18:48:28.081Z,176.00
2018-06-01T18:49:28.120Z,172.00
2018-06-01T18:50:28.069Z,176.00
2018-06-01T18:51:28.065Z,172.00
2018-06-01T18:52:28.059Z,172.00
2018-06-01T18:53:28.055Z,172.00
2018-06-01T18:54:28.052Z,168.00
2018-06-01T18:55:28.044Z,168.00
2018-06-01T18:56:28.038Z,168.00
2018-06-01T18:57:28.032Z,172.00
2018-06-01T18:58:28.030Z,168.00
2018-06-01T18:59:28.021Z,168.00
2018-06-01T19:00:28.019Z,164.00
2018-06-01T19:01:28.012Z,164.00
2018-06-01T19:02:28.006Z,164.00
2018-06-01T19:03:28.000Z,160.00
2018-06-01T19:04:27.997Z,160.00
2018-06-01T19:05:27.991Z,156.00
2018-06-01T19:06:27.985Z,156.00
2018-06-01T19:07:27.981Z,156.00
2018-06-01T19:08:27.980Z,152.00
2018-06-01T19:09:27.970Z,156.00
2018-06-01T19:10:27.967Z,152.00
2018-06-01T19:11:27.960Z,152.00
2018-06-01T19:12:27.952Z,152.00
2018-06-01T19:13:27.948Z,152.00
2018-06-01T19:14:27.942Z,152.00
2018-06-01T19:15:27.937Z,152.00
2018-06-01T19:16:28.132Z,156.00
2018-06-01T19:17:27.978Z,152.00
2018-06-01T19:18:27.919Z,148.00
2018-06-01T19:19:27.914Z,152.00
2018-06-01T19:20:27.910Z,148.00
2018-06-01T19:21:27.904Z,148.00
2018-06-01T19:22:27.898Z,144.00
2018-06-01T19:23:27.895Z,140.00
2018-06-01T19:24:27.889Z,144.00
2018-06-01T19:25:27.885Z,144.00
2018-06-01T19:26:27.878Z,140.00
2018-06-01T19:27:27.873Z,140.00
2018-06-01T19:28:27.868Z,140.00
2018-06-01T19:29:27.863Z,136.00
2018-06-01T19:30:27.855Z,132.00
2018-06-01T19:31:27.852Z,132.00
2018-06-01T19:32:27.850Z,124.00
2018-06-01T19:33:27.841Z,124.00
2018-06-01T19:34:27.887Z,124.00
2018-06-01T19:35:27.830Z,120.00
2018-06-01T19:36:27.825Z,116.00
2018-06-01T19:37:27.820Z,120.00
2018-06-01T19:38:27.815Z,116.00
2018-06-01T19:39:27.809Z,116.00
2018-06-01T19:40:27.808Z,112.00
2018-06-01T19:41:27.800Z,112.00
2018-06-01T19:42:27.797Z,108.00
2018-06-01T19:43:27.786Z,104.00
2018-06-01T19:44:27.783Z,104.00
2018-06-01T19:45:27.776Z,100.00
2018-06-01T19:46:27.818Z,100.00
2018-06-01T19:47:27.764Z,100.00
2018-06-01T19:48:27.761Z,96.00
2018-06-01T19:49:27.757Z,92.00
2018-06-01T19:50:27.751Z,96.00
2018-06-01T19:51:27.745Z,92.00
2018-06-01T19:52:27.740Z,88.00
2018-06-01T19:53:27.734Z,88.00
2018-06-01T19:54:27.760Z,84.00
2018-06-01T19:55:27.723Z,80.00
2018-06-01T19:56:27.719Z,76.00
2018-06-01T19:57:27.713Z,68.00
2018-06-01T19:58:27.705Z,68.00
2018-06-01T19:59:27.705Z,68.00
2018-06-01T20:00:27.695Z,64.00
2018-06-01T20:01:27.689Z,60.00
2018-06-01T20:02:27.684Z,60.00
2018-06-01T20:03:27.677Z,52.00
2018-06-01T20:04:27.673Z,52.00
2018-06-01T20:05:27.668Z,52.00
2018-06-01T20:06:27.661Z,52.00
2018-06-01T20:07:27.658Z,48.00
2018-06-01T20:08:27.651Z,44.00
2018-06-01T20:09:27.645Z,44.00
2018-06-01T20:10:27.640Z,44.00
2018-06-01T20:11:27.637Z,36.00
2018-06-01T20:12:27.629Z,36.00
2018-06-01T20:13:27.623Z,32.00
2018-06-01T20:14:27.617Z,28.00
2018-06-01T20:15:27.612Z,28.00
2018-06-01T20:16:27.607Z,24.00
2018-06-01T20:17:27.601Z,24.00
2018-06-01T20:18:27.596Z,24.00
2018-06-01T20:19:27.589Z,20.00
2018-06-01T20:20:27.583Z,16.00
2018-06-01T20:21:27.577Z,16.00
2018-06-01T20:22:27.570Z,16.00
2018-06-01T20:23:27.566Z,16.00
2018-06-01T20:24:27.560Z,12.00
2018-06-01T20:25:27.555Z,12.00
2018-06-01T20:26:27.549Z,8.00
2018-06-01T20:27:27.547Z,8.00
2018-06-01T20:28:27.538Z,12.00
2018-06-01T20:29:27.533Z,8.00
2018-06-01T20:30:27.525Z,8.00
2018-06-01T20:31:27.520Z,4.00
2018-06-01T20:32:27.515Z,8.00
2018-06-01T20:33:27.509Z,4.00
2018-06-01T20:34:27.503Z,4.00
2018-06-01T20:35:27.497Z,4.00
2018-06-01T20:36:27.492Z,0.00
2018-06-01T20:37:27.485Z,0.00
2018-06-01T20:38:27.480Z,4.00
2018-06-01T20:39:27.474Z,8.00
2018-06-01T20:40:27.469Z,8.00
2018-06-01T20:41:27.463Z,12.00
2018-06-01T20:42:27.456Z,8.00
2018-06-01T20:43:27.451Z,8.00
2018-06-01T20:44:27.447Z,8.00
2018-06-01T20:45:27.450Z,8.00
2018-06-01T20:46:27.433Z,8.00
2018-06-01T20:47:27.426Z,8.00
2018-06-01T20:48:27.422Z,8.00
2018-06-01T20:49:27.416Z,8.00
2018-06-01T20:50:27.410Z,8.00
2018-06-01T20:51:27.448Z,8.00
2018-06-01T20:52:27.501Z,8.00
2018-06-01T20:53:27.392Z,8.00
2018-06-01T20:54:27.385Z,8.00
2018-06-01T20:55:27.380Z,8.00
2018-06-01T20:56:27.372Z,8.00
2018-06-01T20:57:27.366Z,8.00
2018-06-01T20:58:27.360Z,8.00
2018-06-01T20:59:27.359Z,8.00
2018-06-01T21:00:27.353Z,8.00
2018-06-01T21:01:27.346Z,8.00
2018-06-01T21:02:27.335Z,8.00
2018-06-01T21:03:27.329Z,8.00
2018-06-01T21:04:27.323Z,8.00
2018-06-01T21:05:27.318Z,8.00
2018-06-01T21:06:27.310Z,8.00
2018-06-01T21:07:27.307Z,4.00
2018-06-01T21:08:27.297Z,4.00
2018-06-01T21:09:27.291Z,4.00
2018-06-01T21:10:27.286Z,8.00
2018-06-01T21:11:27.278Z,4.00
2018-06-01T21:12:27.283Z,4.00
2018-06-01T21:13:27.267Z,4.00
2018-06-01T21:14:27.259Z,4.00
2018-06-01T21:15:27.253Z,4.00
2018-06-01T21:16:27.246Z,4.00
2018-06-01T21:17:27.241Z,4.00
2018-06-01T21:18:27.233Z,4.00
2018-06-01T21:19:27.227Z,4.00
2018-06-01T21:20:27.221Z,4.00
2018-06-01T21:21:27.264Z,4.00
2018-06-01T21:22:27.206Z,4.00
2018-06-01T21:23:27.201Z,4.00
2018-06-01T21:24:27.194Z,4.00
2018-06-01T21:25:27.190Z,4.00
2018-06-01T21:26:27.180Z,4.00
2018-06-01T21:27:27.173Z,4.00
2018-06-01T21:28:27.167Z,4.00
2018-06-01T21:29:27.168Z,4.00
2018-06-01T21:30:27.153Z,4.00
2018-06-01T21:31:27.146Z,4.00
2018-06-01T21:32:27.140Z,4.00
2018-06-01T21:33:27.133Z,4.00
2018-06-01T21:34:27.131Z,4.00
2018-06-01T21:35:27.119Z,4.00
2018-06-01T21:36:27.113Z,4.00
2018-06-01T21:37:27.105Z,4.00
2018-06-01T21:38:27.098Z,4.00
2018-06-01T21:39:27.093Z,4.00
2018-06-01T21:40:27.084Z,4.00
2018-06-01T21:41:27.078Z,4.00
2018-06-01T21:42:27.072Z,4.00
2018-06-01T21:43:27.064Z,4.00
2018-06-01T21:44:27.057Z,4.00
2018-06-01T21:45:27.049Z,4.00
2018-06-01T21:46:27.042Z,4.00
2018-06-01T21:47:27.036Z,4.00
2018-06-01T21:48:27.028Z,4.00
2018-06-01T21:49:27.021Z,4.00
2018-06-01T21:50:27.015Z,4.00
2018-06-01T21:51:27.006Z,4.00
2018-06-01T21:52:27.000Z,4.00
2018-06-01T21:53:26.993Z,4.00
2018-06-01T21:54:26.984Z,4.00
2018-06-01T21:55:26.978Z,4.00
2018-06-01T21:56:26.973Z,4.00
2018-06-01T21:57:26.962Z,4.00
2018-06-01T21:58:26.955Z,4.00
2018-06-01T21:59:26.949Z,4.00
2018-06-01T22:00:26.942Z,4.00
2018-06-01T22:01:26.935Z,4.00
2018-06-01T22:02:26.927Z,4.00
2018-06-01T22:03:26.920Z,4.00
2018-06-01T22:04:26.913Z,4.00
2018-06-01T22:05:26.910Z,4.00
2018-06-01T22:06:26.897Z,4.00
2018-06-01T22:07:26.892Z,4.00
2018-06-01T22:08:28.114Z,4.00
2018-06-01T22:09:26.910Z,4.00
2018-06-01T22:10:26.888Z,4.00
2018-06-01T22:11:26.869Z,4.00
2018-06-01T22:12:26.865Z,8.00
2018-06-01T22:13:26.861Z,8.00
2018-06-01T22:14:26.877Z,4.00
2018-06-01T22:15:26.859Z,4.00
2018-06-01T22:16:26.857Z,4.00
2018-06-01T22:17:26.840Z,4.00
2018-06-01T22:18:26.842Z,4.00
2018-06-01T22:19:26.838Z,4.00
2018-06-01T22:20:26.825Z,4.00
2018-06-01T22:21:26.824Z,4.00
2018-06-01T22:22:26.816Z,4.00
2018-06-01T22:23:26.803Z,4.00
2018-06-01T22:24:26.799Z,4.00
2018-06-01T22:25:26.782Z,4.00
2018-06-01T22:26:26.778Z,4.00
2018-06-01T22:27:26.773Z,4.00
2018-06-01T22:28:26.764Z,4.00
2018-06-01T22:29:26.755Z,4.00
2018-06-01T22:30:26.752Z,4.00
2018-06-01T22:31:26.727Z,4.00
2018-06-01T22:32:26.735Z,4.00
2018-06-01T22:33:26.726Z,4.00
2018-06-01T22:34:26.708Z,4.00
2018-06-01T22:35:26.684Z,4.00
2018-06-01T22:36:26.693Z,4.00
2018-06-01T22:37:26.691Z,4.00
2018-06-01T22:38:26.681Z,4.00
2018-06-01T22:39:26.665Z,4.00
2018-06-01T22:40:26.666Z,4.00
2018-06-01T22:41:26.647Z,4.00
2018-06-01T22:42:26.657Z,4.00
2018-06-01T22:43:26.649Z,4.00
2018-06-01T22:44:26.641Z,4.00
2018-06-01T22:45:26.609Z,4.00
2018-06-01T22:46:26.625Z,4.00
2018-06-01T22:47:26.613Z,4.00
2018-06-01T22:48:26.600Z,4.00
2018-06-01T22:49:26.605Z,4.00
2018-06-01T22:50:26.582Z,4.00
2018-06-01T22:51:26.590Z,4.00
2018-06-01T22:52:26.577Z,4.00
2018-06-01T22:53:26.570Z,4.00
2018-06-01T22:54:26.563Z,4.00
2018-06-01T22:55:26.561Z,4.00
2018-06-01T22:56:26.544Z,4.00
2018-06-01T22:57:26.529Z,4.00
2018-06-01T22:58:26.528Z,4.00
2018-06-01T22:59:26.527Z,4.00
2018-06-01T23:00:26.514Z,4.00
2018-06-01T23:01:26.510Z,4.00
2018-06-01T23:02:26.488Z,4.00
2018-06-01T23:03:26.488Z,4.00
2018-06-01T23:04:26.485Z,4.00
2018-06-01T23:05:26.452Z,4.00
2018-06-01T23:06:26.450Z,4.00
2018-06-01T23:07:26.467Z,4.00
2018-06-01T23:08:26.449Z,4.00
2018-06-01T23:09:26.418Z,4.00
2018-06-01T23:10:26.452Z,4.00
2018-06-01T23:11:26.418Z,4.00
2018-06-01T23:12:26.421Z,4.00
2018-06-01T23:13:26.422Z,4.00
2018-06-01T23:14:26.398Z,4.00
2018-06-01T23:15:26.405Z,4.00
2018-06-01T23:16:26.391Z,4.00
2018-06-01T23:17:26.390Z,4.00
2018-06-01T23:18:26.367Z,4.00
2018-06-01T23:19:26.360Z,4.00
2018-06-01T23:20:26.364Z,4.00
2018-06-01T23:21:26.362Z,4.00
2018-06-01T23:22:26.336Z,4.00
2018-06-01T23:23:26.331Z,4.00
2018-06-01T23:24:26.323Z,4.00
2018-06-01T23:25:26.351Z,4.00
2018-06-01T23:26:26.328Z,4.00
2018-06-01T23:27:26.315Z,4.00
2018-06-01T23:28:26.307Z,4.00
2018-06-01T23:29:26.300Z,4.00
2018-06-01T23:30:26.283Z,4.00
2018-06-01T23:31:26.287Z,4.00
2018-06-01T23:32:26.284Z,4.00
2018-06-01T23:33:26.277Z,4.00
2018-06-01T23:34:26.269Z,4.00
2018-06-01T23:35:26.259Z,4.00
2018-06-01T23:36:26.252Z,4.00
2018-06-01T23:37:26.247Z,4.00
2018-06-01T23:38:26.234Z,4.00
2018-06-01T23:39:26.225Z,4.00
2018-06-01T23:40:26.222Z,4.00
2018-06-01T23:41:26.209Z,4.00
2018-06-01T23:42:26.200Z,4.00
2018-06-01T23:43:26.187Z,4.00
2018-06-01T23:44:26.187Z,4.00
2018-06-01T23:45:26.173Z,4.00
2018-06-01T23:46:26.164Z,4.00
2018-06-01T23:47:26.163Z,4.00
2018-06-01T23:48:26.156Z,4.00
2018-06-01T23:49:26.142Z,4.00
2018-06-01T23:50:26.150Z,4.00
2018-06-01T23:51:26.123Z,4.00
2018-06-01T23:52:26.092Z,4.00
2018-06-01T23:53:26.083Z,4.00
2018-06-01T23:54:26.083Z,4.00
2018-06-01T23:55:26.068Z,4.00
2018-06-01T23:56:26.071Z,4.00
2018-06-01T23:57:26.055Z,4.00
2018-06-01T23:58:26.047Z,4.00
2018-06-01T23:59:26.037Z,4.00
